Aérodrome :
LOGIN :

S'inscrire | Disclaimer

   EN    FR    IT 

 










Légende :    VFR   VFR Marginal   IFR   IFR Intensif   IFR Très Intensif
Visi : 
Plafond : 
>= 8 km
>= 3000ft
5 à 8 km
1000 à 3000 ft
1500m à 5 km
500 à 1000 ft
800 à 1500m
200 à 500 ft
< 800m
< 200 ft
Symboles :   Orages  Brouillard  Fortes neiges  Fortes précipitations  Vent > 20 kt
SIGMETs :   Divers  Orages  Givrage  Turbulence  Onde Orograph.  Cendres Volcan.







- Altitude de l'aérodrome : 433 ft
- Voir les cartes d'approche


LFOC - Chateaudun

DERNIER METAR :
  • 281200Z AUTO 24013KT 210V270 9999 -RA SCT020 BKN026 BKN043 18/15 Q0999 TEMPO 25015G25KT 3000 -TSRA SCT012 BKN030CB

METARs EXPIRÉS :
  • 281130Z AUTO 22014KT 9999 FEW020 SCT027 BKN037 20/15 Q0999 TEMPO 25015G25KT 3000 -TSRA SCT012 BKN030CB
  • 281100Z AUTO 22012KT 9999 FEW011/// OVC084/// ///TCU 20/16 Q0999 TEMPO 25015G25KT 3000 -TSRA SCT012 BKN030CB
  • 281030Z AUTO 22010KT 9999 SCT016/// SCT031/// OVC064/// ///TCU 18/17 Q0999 TEMPO 25015G25KT 3000 -TSRA SCT012 BKN030CB
  • 281000Z AUTO 22011KT 180V250 9999 BKN018 BKN030 BKN037 18/16 Q0999 TEMPO 25015G25KT 3000 -TSRA SCT012 BKN030CB
  • 280930Z AUTO 20010KT 9999 FEW015/// SCT021/// BKN058/// ///TCU 21/16 Q0999 TEMPO 25015G25KT 3000 -TSRA SCT012 BKN030CB

TAF TAF LFOC
Valide du 28 à 09h jusqu'au 29 à 09h UTC


280800Z 2809/2909 24010KT 9999 BKN015 BKN030
TEMPO 2811/2903 4000 -SHRA FEW012 BKN025TCU
PROB30
TEMPO 2811/2814 25015G25KT 3000 -TSRA SCT012 BKN030CB
PROB40
TEMPO 2822/2907 25015G25KT 3000 -TSRA BKN010 BKN025CB
Pas de NOTAMs connus pour ce terrain.



MET'MAP, la Météo Aéronautique d'un coup d'oeil ! - Copyright ORBIFLY Décembre 2007 - Disclaimer

ORBIFLY MET'MAP TEAM :

Programmation & Développement : Alexandra Zaïnal
Conception & Développement : Baudouin d'Aumeries
Co-Programmation & Développement : Marc-Olivier Méhu
Soutien technique & logistique : Manuel Goepfert

Contact : metmap@orbifly.com




SOURCES & CREDITS :

   NOAA